createdAt,value
2024-03-08T00:00:15.390Z,-0.50
2024-03-08T00:02:44.184Z,-0.50
2024-03-08T00:05:11.816Z,-0.40
2024-03-08T00:07:42.792Z,-0.40
2024-03-08T00:10:12.933Z,-0.50
2024-03-08T00:12:47.862Z,-0.50
2024-03-08T00:15:18.059Z,-0.50
2024-03-08T00:17:46.231Z,-0.50
2024-03-08T00:20:15.178Z,-0.60
2024-03-08T00:22:44.274Z,-0.50
2024-03-08T00:25:11.504Z,-0.60
2024-03-08T00:27:39.851Z,-0.60
2024-03-08T00:30:08.021Z,-0.60
2024-03-08T00:32:38.167Z,-0.60
2024-03-08T00:35:08.951Z,-0.50
2024-03-08T00:37:36.303Z,-0.50
2024-03-08T00:40:04.203Z,-0.50
2024-03-08T00:42:31.216Z,-0.50
2024-03-08T00:44:59.769Z,-0.50
2024-03-08T00:47:27.601Z,-0.50
2024-03-08T00:49:54.719Z,-0.50
2024-03-08T00:52:21.673Z,-0.50
2024-03-08T00:54:48.646Z,-0.50
2024-03-08T00:57:15.696Z,-0.50
2024-03-08T00:59:43.058Z,-0.60
2024-03-08T01:02:12.812Z,-0.60
2024-03-08T01:04:39.894Z,-0.60
2024-03-08T01:07:07.076Z,-0.50
2024-03-08T01:09:34.126Z,-0.50
2024-03-08T01:12:02.469Z,-0.60
2024-03-08T01:14:32.505Z,-0.60
2024-03-08T01:17:00.129Z,-0.60
2024-03-08T01:19:27.222Z,-0.60
2024-03-08T01:21:57.028Z,-0.70
2024-03-08T01:24:24.339Z,-0.70
2024-03-08T01:26:51.430Z,-0.70
2024-03-08T01:29:18.484Z,-0.70
2024-03-08T01:31:45.487Z,-0.80
2024-03-08T01:34:12.509Z,-0.80
2024-03-08T01:36:39.673Z,-0.80
2024-03-08T01:39:09.614Z,-0.90
2024-03-08T01:41:37.366Z,-0.90
2024-03-08T01:44:05.189Z,-0.90
2024-03-08T01:46:32.918Z,-0.90
2024-03-08T01:49:03.349Z,-0.90
2024-03-08T01:51:32.513Z,-0.90
2024-03-08T01:54:01.144Z,-1.00
2024-03-08T01:56:28.330Z,-1.00
2024-03-08T01:58:56.225Z,-1.00
2024-03-08T02:01:23.359Z,-1.00
2024-03-08T02:03:51.029Z,-1.00
2024-03-08T02:06:18.680Z,-1.00
2024-03-08T02:08:47.280Z,-1.00
2024-03-08T02:11:15.635Z,-1.00
2024-03-08T02:13:43.259Z,-1.00
2024-03-08T02:16:10.390Z,-1.00
2024-03-08T02:18:38.739Z,-1.00
2024-03-08T02:21:07.965Z,-1.00
2024-03-08T02:23:36.178Z,-1.10
2024-03-08T02:26:03.313Z,-1.10
2024-03-08T02:28:30.612Z,-1.10
2024-03-08T02:30:58.759Z,-1.10
2024-03-08T02:33:29.067Z,-1.10
2024-03-08T02:35:59.569Z,-1.10
2024-03-08T02:38:26.957Z,-1.10
2024-03-08T02:40:55.803Z,-1.00
2024-03-08T02:43:24.177Z,-1.00
2024-03-08T02:45:51.910Z,-1.00
2024-03-08T02:48:20.354Z,-1.00
2024-03-08T02:50:47.610Z,-1.10
2024-03-08T02:53:15.487Z,-1.10
2024-03-08T02:55:45.513Z,-1.00
2024-03-08T02:58:12.963Z,-1.00
2024-03-08T03:00:40.936Z,-1.10
2024-03-08T03:03:09.452Z,-1.10
2024-03-08T03:05:36.760Z,-1.00
2024-03-08T03:08:10.828Z,-1.10
2024-03-08T03:10:38.646Z,-1.10
2024-03-08T03:13:10.117Z,-1.00
2024-03-08T03:15:38.054Z,-1.00
2024-03-08T03:18:09.696Z,-1.00
2024-03-08T03:20:42.533Z,-1.00
2024-03-08T03:23:16.380Z,-1.00
2024-03-08T03:25:44.297Z,-1.00
2024-03-08T03:28:15.825Z,-1.00
2024-03-08T03:30:44.379Z,-1.00
2024-03-08T03:33:14.114Z,-0.90
2024-03-08T03:35:43.338Z,-0.90
2024-03-08T03:38:11.817Z,-0.90
2024-03-08T03:40:41.730Z,-0.90
2024-03-08T03:43:12.133Z,-0.90
2024-03-08T03:45:43.836Z,-0.90
2024-03-08T03:48:11.858Z,-0.90
2024-03-08T03:50:40.273Z,-0.90
2024-03-08T03:53:11.760Z,-0.90
2024-03-08T03:55:41.511Z,-0.90
2024-03-08T03:58:11.454Z,-0.90
2024-03-08T04:00:39.196Z,-0.90
2024-03-08T04:03:06.421Z,-0.90
2024-03-08T04:05:33.605Z,-1.00
2024-03-08T04:08:00.748Z,-1.00
2024-03-08T04:10:27.711Z,-0.90
2024-03-08T04:12:54.772Z,-0.90
2024-03-08T04:15:22.059Z,-0.90
2024-03-08T04:17:49.269Z,-0.90
2024-03-08T04:20:16.646Z,-0.90
2024-03-08T04:22:45.826Z,-0.90
2024-03-08T04:25:15.210Z,-0.90
2024-03-08T04:27:42.472Z,-0.90
2024-03-08T04:30:10.526Z,-0.90
2024-03-08T04:32:37.925Z,-0.90
2024-03-08T04:35:05.381Z,-0.90
2024-03-08T04:37:33.048Z,-0.90
2024-03-08T04:40:01.684Z,-0.90
2024-03-08T04:42:31.108Z,-0.90
2024-03-08T04:44:58.931Z,-0.90
2024-03-08T04:47:26.532Z,-0.90
2024-03-08T04:49:54.567Z,-0.90
2024-03-08T04:52:23.705Z,-1.00
2024-03-08T04:54:51.817Z,-0.90
2024-03-08T04:57:20.477Z,-0.90
2024-03-08T04:59:49.832Z,-0.90
2024-03-08T05:02:17.085Z,-0.90
2024-03-08T05:04:44.359Z,-0.90
2024-03-08T05:07:11.466Z,-0.80
2024-03-08T05:09:39.157Z,-0.90
2024-03-08T05:12:06.887Z,-0.80
2024-03-08T05:14:34.246Z,-0.90
2024-03-08T05:17:02.106Z,-0.80
2024-03-08T05:19:34.615Z,-0.80
2024-03-08T05:22:05.282Z,-0.80
2024-03-08T05:24:32.270Z,-0.80
2024-03-08T05:29:52.034Z,-0.70
2024-03-08T05:32:19.042Z,-0.80
2024-03-08T05:34:46.072Z,-0.80
2024-03-08T05:37:13.116Z,-0.80
2024-03-08T05:39:40.105Z,-0.80
2024-03-08T05:42:10.409Z,-0.90
2024-03-08T05:44:37.501Z,-0.80
2024-03-08T05:47:04.599Z,-0.70
2024-03-08T05:49:34.539Z,-0.80
2024-03-08T05:52:05.252Z,-0.90
2024-03-08T05:54:34.350Z,-0.90
2024-03-08T05:57:01.618Z,-0.90
2024-03-08T05:59:28.595Z,-0.90
2024-03-08T06:01:55.730Z,-0.90
2024-03-08T06:04:25.095Z,-0.90
2024-03-08T06:06:53.138Z,-0.80
2024-03-08T06:09:25.166Z,-0.90
2024-03-08T06:11:56.433Z,-0.80
2024-03-08T06:14:24.865Z,-0.90
2024-03-08T06:16:51.968Z,-0.80
2024-03-08T06:19:19.487Z,-0.80
2024-03-08T06:21:46.953Z,-0.90
2024-03-08T06:24:13.986Z,-0.90
2024-03-08T06:26:43.133Z,-0.90
2024-03-08T06:29:10.217Z,-0.80
2024-03-08T06:31:40.679Z,-0.80
2024-03-08T06:34:09.724Z,-0.80
2024-03-08T06:36:39.502Z,-0.80
2024-03-08T06:39:12.053Z,-0.70
2024-03-08T06:41:39.367Z,-0.70
2024-03-08T06:44:06.713Z,-0.70
2024-03-08T06:46:35.188Z,-0.70
2024-03-08T06:49:02.615Z,-0.70
2024-03-08T06:51:29.869Z,-0.70
2024-03-08T06:53:56.899Z,-0.60
2024-03-08T06:56:23.955Z,-0.60
2024-03-08T06:58:51.502Z,-0.50
2024-03-08T07:01:18.755Z,-0.60
2024-03-08T07:03:46.190Z,-0.60
2024-03-08T07:06:13.587Z,-0.60
2024-03-08T07:08:41.297Z,-0.60
2024-03-08T07:11:09.608Z,-0.50
2024-03-08T07:13:36.573Z,-0.50
2024-03-08T07:16:03.677Z,-0.50
2024-03-08T07:18:31.833Z,-0.40
2024-03-08T07:20:59.473Z,-0.40
2024-03-08T07:23:45.339Z,-0.30
2024-03-08T07:26:12.417Z,-0.30
2024-03-08T07:28:39.446Z,-0.20
2024-03-08T07:31:18.834Z,-0.20
2024-03-08T07:33:46.195Z,-0.20
2024-03-08T07:36:13.493Z,-0.20
2024-03-08T07:38:40.669Z,-0.20
2024-03-08T07:41:07.714Z,-0.20
2024-03-08T07:43:34.818Z,-0.10
2024-03-08T07:46:01.932Z,0.00
2024-03-08T07:48:29.470Z,0.00
2024-03-08T07:50:57.477Z,0.10
2024-03-08T07:53:28.864Z,0.10
2024-03-08T07:55:55.918Z,0.10
2024-03-08T07:58:22.985Z,0.10
2024-03-08T08:00:50.576Z,0.20
2024-03-08T08:03:19.596Z,0.20
2024-03-08T08:05:48.306Z,0.20
2024-03-08T08:08:15.292Z,0.10
2024-03-08T08:10:43.579Z,0.10
2024-03-08T08:13:10.667Z,0.00
2024-03-08T08:15:37.727Z,0.10
2024-03-08T08:18:07.700Z,0.20
2024-03-08T08:20:35.349Z,0.10
2024-03-08T08:23:03.538Z,0.20
2024-03-08T08:25:30.922Z,0.20
2024-03-08T08:27:58.219Z,0.30
2024-03-08T08:30:25.237Z,0.30
2024-03-08T08:32:52.369Z,0.30
2024-03-08T08:35:21.276Z,0.40
2024-03-08T08:37:48.613Z,0.40
2024-03-08T08:40:16.780Z,0.40
2024-03-08T08:42:44.358Z,0.30
2024-03-08T08:45:16.767Z,0.40
2024-03-08T08:47:50.692Z,0.40
2024-03-08T08:50:25.484Z,0.40
2024-03-08T08:52:54.723Z,0.40
2024-03-08T08:55:24.193Z,0.40
2024-03-08T08:57:54.630Z,0.50
2024-03-08T09:00:22.979Z,0.50
2024-03-08T09:02:50.275Z,0.50
2024-03-08T09:05:18.102Z,0.50
2024-03-08T09:07:48.369Z,0.50
2024-03-08T09:10:17.640Z,0.40
2024-03-08T09:12:46.174Z,0.40
2024-03-08T09:15:13.739Z,0.40
2024-03-08T09:17:42.080Z,0.40
2024-03-08T09:20:12.104Z,0.40
2024-03-08T09:22:39.414Z,0.50
2024-03-08T09:25:07.185Z,0.50
2024-03-08T09:27:38.465Z,0.50
2024-03-08T09:30:09.265Z,0.50
2024-03-08T09:32:38.395Z,0.50
2024-03-08T09:35:09.018Z,0.50
2024-03-08T09:37:36.828Z,0.50
2024-03-08T09:40:11.154Z,0.50
2024-03-08T09:42:41.811Z,0.40
2024-03-08T09:45:16.898Z,0.40
2024-03-08T09:47:45.285Z,0.40
2024-03-08T09:50:14.159Z,0.40
2024-03-08T09:52:42.405Z,0.40
2024-03-08T09:55:13.316Z,0.40
2024-03-08T09:57:55.355Z,0.40
2024-03-08T10:00:25.690Z,0.40
2024-03-08T10:02:57.324Z,0.40
2024-03-08T10:05:24.442Z,0.30
2024-03-08T10:07:51.786Z,0.40
2024-03-08T10:10:18.965Z,0.30
2024-03-08T10:12:47.196Z,0.30
2024-03-08T10:15:14.187Z,0.30
2024-03-08T10:17:41.327Z,0.30
2024-03-08T10:20:20.485Z,0.40
2024-03-08T10:22:58.404Z,0.30
2024-03-08T10:25:34.631Z,0.40
2024-03-08T10:28:05.348Z,0.30
2024-03-08T10:30:33.328Z,0.30
2024-03-08T10:33:03.512Z,0.30
2024-03-08T10:35:30.609Z,0.20
2024-03-08T10:38:02.502Z,0.20
2024-03-08T10:40:31.329Z,0.20
2024-03-08T10:43:00.144Z,0.10
2024-03-08T10:45:38.336Z,0.10
2024-03-08T10:48:40.057Z,0.00
2024-03-08T10:51:08.897Z,0.00
2024-03-08T10:53:38.598Z,0.10
2024-03-08T10:56:09.983Z,0.00
2024-03-08T10:58:38.309Z,0.00
2024-03-08T11:01:07.775Z,0.00
2024-03-08T11:03:47.363Z,0.10
2024-03-08T11:06:17.514Z,0.10
2024-03-08T11:08:46.125Z,0.00
2024-03-08T11:11:43.867Z,0.00
2024-03-08T11:14:45.374Z,0.10
2024-03-08T11:17:12.430Z,0.10
2024-03-08T11:19:42.374Z,0.20
2024-03-08T11:22:24.828Z,0.30
2024-03-08T11:24:51.919Z,0.30
2024-03-08T11:27:18.976Z,0.20
2024-03-08T11:29:47.335Z,0.30
2024-03-08T11:32:23.470Z,0.30
2024-03-08T11:34:51.585Z,0.40
2024-03-08T11:37:22.090Z,0.40
2024-03-08T11:39:53.943Z,0.50
2024-03-08T11:42:23.976Z,0.50
2024-03-08T11:44:52.365Z,0.40
2024-03-08T11:47:22.448Z,0.30
2024-03-08T11:49:49.932Z,0.10
2024-03-08T11:52:19.056Z,0.10
2024-03-08T11:54:55.653Z,0.10
2024-03-08T11:57:25.563Z,0.20
2024-03-08T11:59:58.714Z,0.20
2024-03-08T12:02:27.135Z,0.30
2024-03-08T12:05:02.097Z,0.30
2024-03-08T12:07:29.589Z,0.30
2024-03-08T12:10:19.881Z,0.10
2024-03-08T12:12:53.597Z,0.10
2024-03-08T12:15:22.619Z,0.20
2024-03-08T12:17:52.892Z,0.30
2024-03-08T12:20:23.368Z,0.30
2024-03-08T12:22:55.455Z,0.30
2024-03-08T12:25:40.405Z,0.30
2024-03-08T12:28:12.193Z,0.40
2024-03-08T12:30:49.362Z,0.50
2024-03-08T12:33:16.818Z,0.60
2024-03-08T12:35:56.368Z,0.60
2024-03-08T12:38:27.198Z,0.70
2024-03-08T12:41:02.310Z,0.60
2024-03-08T12:43:33.618Z,0.70
2024-03-08T12:46:03.203Z,0.70
2024-03-08T12:48:35.066Z,0.70
2024-03-08T12:51:04.391Z,0.80
2024-03-08T12:53:31.889Z,0.80
2024-03-08T12:55:59.225Z,0.80
2024-03-08T12:58:27.326Z,0.70
2024-03-08T13:00:54.634Z,0.70
2024-03-08T13:03:24.451Z,0.70
2024-03-08T13:05:52.438Z,0.70
2024-03-08T13:08:19.472Z,0.70
2024-03-08T13:10:49.683Z,0.70
2024-03-08T13:13:18.766Z,0.60
2024-03-08T13:15:46.617Z,0.60
2024-03-08T13:18:16.678Z,0.60
2024-03-08T13:20:48.247Z,0.50
2024-03-08T13:23:15.845Z,0.40
2024-03-08T13:25:43.522Z,0.30
2024-03-08T13:28:10.692Z,0.30
2024-03-08T13:30:40.243Z,0.30
2024-03-08T13:33:08.543Z,0.40
2024-03-08T13:35:38.081Z,0.40
2024-03-08T13:38:06.426Z,0.40
2024-03-08T13:40:34.026Z,0.30
2024-03-08T13:43:02.728Z,0.30
2024-03-08T13:45:35.757Z,0.30
2024-03-08T13:50:51.343Z,0.30
2024-03-08T13:53:18.550Z,0.20
2024-03-08T13:55:47.942Z,0.20
2024-03-08T13:58:15.296Z,0.20
2024-03-08T14:00:45.739Z,0.20
2024-03-08T14:03:13.907Z,0.20
2024-03-08T14:05:44.184Z,0.20
2024-03-08T14:08:13.350Z,0.00
2024-03-08T14:10:40.826Z,0.00
2024-03-08T14:13:08.300Z,0.00
2024-03-08T14:15:36.876Z,-0.10
2024-03-08T14:18:08.468Z,-0.10
2024-03-08T14:20:35.726Z,0.00
2024-03-08T14:23:03.295Z,0.00
2024-03-08T14:25:31.297Z,-0.10
2024-03-08T14:28:08.365Z,0.00
2024-03-08T14:30:39.770Z,-0.10
2024-03-08T14:33:10.929Z,-0.10
2024-03-08T14:35:41.868Z,0.00
2024-03-08T14:38:13.602Z,0.00
2024-03-08T14:40:48.185Z,-0.10
2024-03-08T14:43:16.291Z,-0.10
2024-03-08T14:45:43.548Z,-0.10
2024-03-08T14:48:13.157Z,-0.30
2024-03-08T14:50:41.891Z,-0.30
2024-03-08T14:53:08.937Z,-0.30
2024-03-08T14:55:36.376Z,-0.40
2024-03-08T14:58:05.573Z,-0.40
2024-03-08T15:00:35.452Z,-0.50
2024-03-08T15:03:04.373Z,-0.40
2024-03-08T15:05:33.674Z,-0.40
2024-03-08T15:08:11.513Z,-0.40
2024-03-08T15:10:44.465Z,-0.40
2024-03-08T15:13:16.960Z,-0.50
2024-03-08T15:15:46.516Z,-0.50
2024-03-08T15:18:13.697Z,-0.60
2024-03-08T15:20:40.806Z,-0.60
2024-03-08T15:23:11.167Z,-0.70
2024-03-08T15:25:40.318Z,-0.70
2024-03-08T15:28:14.301Z,-0.70
2024-03-08T15:30:44.058Z,-0.70
2024-03-08T15:33:13.945Z,-0.70
2024-03-08T15:35:41.081Z,-0.70
2024-03-08T15:38:11.404Z,-0.70
2024-03-08T15:40:40.145Z,-0.60
2024-03-08T15:43:07.119Z,-0.70
2024-03-08T15:45:38.053Z,-0.70
2024-03-08T15:48:06.932Z,-0.60
2024-03-08T15:50:37.457Z,-0.60
2024-03-08T15:53:05.422Z,-0.70
2024-03-08T15:55:33.599Z,-0.60
2024-03-08T15:58:03.158Z,-0.60
2024-03-08T16:00:46.335Z,-0.50
2024-03-08T16:03:16.299Z,-0.50
2024-03-08T16:05:46.958Z,-0.50
2024-03-08T16:08:19.448Z,-0.60
2024-03-08T16:10:51.206Z,-0.60
2024-03-08T16:13:20.394Z,-0.70
2024-03-08T16:15:50.563Z,-0.80
2024-03-08T16:18:22.617Z,-0.80
2024-03-08T16:20:56.425Z,-0.80
2024-03-08T16:23:25.398Z,-0.70
2024-03-08T16:25:54.130Z,-0.80
2024-03-08T16:28:27.258Z,-0.70
2024-03-08T16:30:57.616Z,-0.70
2024-03-08T16:33:29.365Z,-0.80
2024-03-08T16:35:58.459Z,-0.90
2024-03-08T16:38:25.733Z,-0.90
2024-03-08T16:40:53.906Z,-0.90
2024-03-08T16:43:21.176Z,-0.90
2024-03-08T16:45:52.034Z,-0.80
2024-03-08T16:48:20.442Z,-0.80
2024-03-08T16:50:47.738Z,-0.80
2024-03-08T16:53:16.264Z,-0.80
2024-03-08T16:55:43.438Z,-0.90
2024-03-08T16:58:16.724Z,-0.80
2024-03-08T17:00:44.024Z,-0.90
2024-03-08T17:03:14.445Z,-0.90
2024-03-08T17:05:47.286Z,-0.90
2024-03-08T17:08:18.258Z,-0.90
2024-03-08T17:10:49.320Z,-0.90
2024-03-08T17:13:19.436Z,-0.90
2024-03-08T17:15:55.298Z,-0.90
2024-03-08T17:18:25.898Z,-0.90
2024-03-08T17:20:56.103Z,-0.90
2024-03-08T17:23:23.949Z,-0.80
2024-03-08T17:25:51.064Z,-0.90
2024-03-08T17:28:18.182Z,-0.90
2024-03-08T17:30:47.657Z,-0.90
2024-03-08T17:33:22.989Z,-0.80
2024-03-08T17:35:51.781Z,-0.90
2024-03-08T17:38:22.953Z,-1.00
2024-03-08T17:40:50.175Z,-1.00
2024-03-08T17:43:22.348Z,-1.00
2024-03-08T17:45:50.909Z,-1.00
2024-03-08T17:48:18.919Z,-1.00
2024-03-08T17:50:55.180Z,-1.00
2024-03-08T17:53:22.627Z,-1.00
2024-03-08T17:55:53.013Z,-1.00
2024-03-08T17:58:21.461Z,-1.00
2024-03-08T18:00:53.236Z,-1.00
2024-03-08T18:03:22.336Z,-1.10
2024-03-08T18:05:49.417Z,-1.00
2024-03-08T18:08:20.001Z,-0.90
2024-03-08T18:10:50.069Z,-1.00
2024-03-08T18:13:17.730Z,-1.00
2024-03-08T18:15:48.025Z,-1.00
2024-03-08T18:18:15.827Z,-1.00
2024-03-08T18:20:46.225Z,-1.00
2024-03-08T18:23:14.450Z,-1.00
2024-03-08T18:25:41.646Z,-1.00
2024-03-08T18:28:10.993Z,-1.00
2024-03-08T18:30:40.056Z,-1.00
2024-03-08T18:33:08.606Z,-0.90
2024-03-08T18:41:21.175Z,-0.90
2024-03-08T18:43:48.376Z,-1.00
2024-03-08T18:46:15.459Z,-1.00
2024-03-08T18:48:43.632Z,-0.90
2024-03-08T18:51:11.511Z,-0.90
2024-03-08T18:53:42.954Z,-0.90
2024-03-08T18:56:10.322Z,-0.90
2024-03-08T18:58:43.125Z,-1.00
2024-03-08T19:01:14.307Z,-1.00
2024-03-08T19:03:42.815Z,-1.00
2024-03-08T19:06:11.603Z,-0.90
2024-03-08T19:08:39.231Z,-1.00
2024-03-08T19:11:06.429Z,-0.90
2024-03-08T19:13:34.292Z,-0.90
2024-03-08T19:16:01.422Z,-0.90
2024-03-08T19:18:30.284Z,-1.00
2024-03-08T19:21:00.807Z,-1.00
2024-03-08T19:23:28.516Z,-0.90
2024-03-08T19:25:55.555Z,-0.80
2024-03-08T19:28:23.112Z,-0.90
2024-03-08T19:30:53.027Z,-0.90
2024-03-08T19:33:22.246Z,-0.80
2024-03-08T19:35:49.856Z,-0.80
2024-03-08T19:38:17.212Z,-0.80
2024-03-08T19:40:45.908Z,-0.80
2024-03-08T19:43:17.134Z,-0.80
2024-03-08T19:45:45.159Z,-0.80
2024-03-08T19:48:22.658Z,-0.80
2024-03-08T19:50:52.378Z,-0.80
2024-03-08T19:53:20.700Z,-0.70
2024-03-08T19:55:52.758Z,-0.70
2024-03-08T19:58:21.774Z,-0.70
2024-03-08T20:00:49.793Z,-0.70
2024-03-08T20:03:36.939Z,-0.70
2024-03-08T20:06:07.407Z,-0.80
2024-03-08T20:08:35.219Z,-0.70
2024-03-08T20:11:05.192Z,-0.80
2024-03-08T20:13:36.216Z,-0.80
2024-03-08T20:16:06.889Z,-0.90
2024-03-08T20:18:40.944Z,-0.90
2024-03-08T20:21:29.283Z,-0.90
2024-03-08T20:23:58.645Z,-0.90
2024-03-08T20:26:26.929Z,-0.90
2024-03-08T20:28:53.984Z,-0.90
2024-03-08T20:31:21.058Z,-0.90
2024-03-08T20:33:48.266Z,-0.90
2024-03-08T20:36:15.279Z,-0.90
2024-03-08T20:38:44.349Z,-0.90
2024-03-08T20:41:13.900Z,-0.90
2024-03-08T20:43:42.956Z,-0.90
2024-03-08T20:46:12.714Z,-0.90
2024-03-08T20:48:41.350Z,-0.90
2024-03-08T20:51:08.638Z,-1.00
2024-03-08T20:53:36.165Z,-0.90
2024-03-08T20:56:04.349Z,-0.90
2024-03-08T20:58:32.336Z,-1.00
2024-03-08T21:01:00.401Z,-0.90
2024-03-08T21:03:28.751Z,-0.90
2024-03-08T21:05:56.944Z,-0.90
2024-03-08T21:08:28.849Z,-1.00
2024-03-08T21:10:57.099Z,-1.00
2024-03-08T21:13:27.748Z,-1.00
2024-03-08T21:15:55.621Z,-0.90
2024-03-08T21:18:23.761Z,-0.90
2024-03-08T21:20:52.287Z,-0.90
2024-03-08T21:23:20.755Z,-0.90
2024-03-08T21:25:48.008Z,-0.90
2024-03-08T21:28:18.986Z,-0.90
2024-03-08T21:30:49.250Z,-0.80
2024-03-08T21:33:16.473Z,-0.80
2024-03-08T21:35:44.034Z,-0.80
2024-03-08T21:38:12.259Z,-0.70
2024-03-08T21:40:52.822Z,-0.70
2024-03-08T21:43:28.637Z,-0.70
2024-03-08T21:45:55.957Z,-0.60
2024-03-08T21:48:23.578Z,-0.60
2024-03-08T21:50:51.406Z,-0.60
2024-03-08T21:53:26.408Z,-0.60
2024-03-08T21:55:58.523Z,-0.60
2024-03-08T21:58:25.915Z,-0.60
2024-03-08T22:00:53.908Z,-0.60
2024-03-08T22:03:23.759Z,-0.50
2024-03-08T22:05:51.790Z,-0.40
2024-03-08T22:08:20.526Z,-0.40
2024-03-08T22:10:49.162Z,-0.50
2024-03-08T22:13:16.534Z,-0.50
2024-03-08T22:15:49.751Z,-0.50
2024-03-08T22:18:17.633Z,-0.50
2024-03-08T22:20:47.530Z,-0.50
2024-03-08T22:23:18.194Z,-0.50
2024-03-08T22:25:48.400Z,-0.50
2024-03-08T22:28:16.518Z,-0.50
2024-03-08T22:30:43.984Z,-0.50
2024-03-08T22:33:11.279Z,-0.50
2024-03-08T22:35:38.594Z,-0.50
2024-03-08T22:38:08.792Z,-0.40
2024-03-08T22:40:36.262Z,-0.40
2024-03-08T22:43:03.337Z,-0.50
2024-03-08T22:45:32.901Z,-0.40
2024-03-08T22:48:00.705Z,-0.40
2024-03-08T22:50:28.465Z,-0.40
2024-03-08T22:52:57.082Z,-0.40
2024-03-08T22:55:25.676Z,-0.40
2024-03-08T22:57:53.305Z,-0.40
2024-03-08T23:00:27.682Z,-0.40
2024-03-08T23:02:57.058Z,-0.40
2024-03-08T23:05:25.395Z,-0.40
2024-03-08T23:07:54.292Z,-0.40
2024-03-08T23:10:31.398Z,-0.40
2024-03-08T23:12:59.313Z,-0.40
2024-03-08T23:15:30.301Z,-0.40
2024-03-08T23:17:58.060Z,-0.50
2024-03-08T23:20:33.814Z,-0.50
2024-03-08T23:23:06.044Z,-0.50
2024-03-08T23:25:36.176Z,-0.50
2024-03-08T23:28:08.476Z,-0.40
2024-03-08T23:30:41.368Z,-0.50
2024-03-08T23:33:10.851Z,-0.50
2024-03-08T23:35:40.277Z,-0.50
2024-03-08T23:38:09.205Z,-0.50
2024-03-08T23:40:40.339Z,-0.60
2024-03-08T23:43:09.775Z,-0.60
2024-03-08T23:45:39.467Z,-0.70
2024-03-08T23:48:12.069Z,-0.80
2024-03-08T23:50:39.469Z,-0.80
2024-03-08T23:53:09.705Z,-0.80
2024-03-08T23:55:40.019Z,-0.80
2024-03-08T23:58:12.912Z,-0.80
